sensor_id;sensor_type;location;lat;lon;timestamp;pressure;altitude;pressure_sealevel;temperature;humidity
27712;BME280;2377;51.734;8.950;2023-03-02T00:01:31;98544.31;;;0.81;59.12
27712;BME280;2377;51.734;8.950;2023-03-02T00:04:02;98540.34;;;0.79;59.83
27712;BME280;2377;51.734;8.950;2023-03-02T00:06:33;98537.81;;;0.79;59.46
27712;BME280;2377;51.734;8.950;2023-03-02T00:09:04;98538.78;;;0.78;59.71
27712;BME280;2377;51.734;8.950;2023-03-02T00:11:34;98534.66;;;0.77;59.50
27712;BME280;2377;51.734;8.950;2023-03-02T00:14:03;98536.75;;;0.72;60.18
27712;BME280;2377;51.734;8.950;2023-03-02T00:16:31;98531.63;;;0.73;59.72
27712;BME280;2377;51.734;8.950;2023-03-02T00:18:58;98527.63;;;0.71;59.64
27712;BME280;2377;51.734;8.950;2023-03-02T00:21:25;98528.56;;;0.70;60.10
27712;BME280;2377;51.734;8.950;2023-03-02T00:23:52;98519.81;;;0.74;59.84
27712;BME280;2377;51.734;8.950;2023-03-02T00:26:19;98523.13;;;0.74;59.52
27712;BME280;2377;51.734;8.950;2023-03-02T00:28:47;98531.34;;;0.76;59.37
27712;BME280;2377;51.734;8.950;2023-03-02T00:31:14;98528.81;;;0.76;59.36
27712;BME280;2377;51.734;8.950;2023-03-02T00:33:42;98527.09;;;0.77;59.27
27712;BME280;2377;51.734;8.950;2023-03-02T00:36:15;98529.63;;;0.77;59.06
27712;BME280;2377;51.734;8.950;2023-03-02T00:38:43;98528.94;;;0.75;58.76
27712;BME280;2377;51.734;8.950;2023-03-02T00:41:11;98527.75;;;0.79;58.58
27712;BME280;2377;51.734;8.950;2023-03-02T00:43:39;98524.47;;;0.78;58.95
27712;BME280;2377;51.734;8.950;2023-03-02T00:46:10;98537.44;;;0.74;58.99
27712;BME280;2377;51.734;8.950;2023-03-02T00:48:38;98538.72;;;0.68;59.01
27712;BME280;2377;51.734;8.950;2023-03-02T00:51:07;98541.25;;;0.68;59.92
27712;BME280;2377;51.734;8.950;2023-03-02T00:53:35;98537.94;;;0.58;60.44
27712;BME280;2377;51.734;8.950;2023-03-02T00:56:04;98541.50;;;0.55;60.23
27712;BME280;2377;51.734;8.950;2023-03-02T00:58:32;98535.28;;;0.50;60.51
27712;BME280;2377;51.734;8.950;2023-03-02T01:01:05;98546.78;;;0.43;60.12
27712;BME280;2377;51.734;8.950;2023-03-02T01:03:32;98544.28;;;0.43;60.39
27712;BME280;2377;51.734;8.950;2023-03-02T01:05:59;98547.69;;;0.41;59.96
27712;BME280;2377;51.734;8.950;2023-03-02T01:08:28;98543.19;;;0.35;60.26
27712;BME280;2377;51.734;8.950;2023-03-02T01:10:55;98547.13;;;0.28;60.01
27712;BME280;2377;51.734;8.950;2023-03-02T01:13:26;98545.28;;;0.30;60.11
27712;BME280;2377;51.734;8.950;2023-03-02T01:15:59;98543.16;;;0.26;60.22
27712;BME280;2377;51.734;8.950;2023-03-02T01:18:27;98533.63;;;0.19;60.62
27712;BME280;2377;51.734;8.950;2023-03-02T01:21:00;98534.97;;;0.24;60.50
27712;BME280;2377;51.734;8.950;2023-03-02T01:23:30;98530.34;;;0.29;60.19
27712;BME280;2377;51.734;8.950;2023-03-02T01:25:57;98526.25;;;0.37;60.05
27712;BME280;2377;51.734;8.950;2023-03-02T01:28:24;98524.16;;;0.43;60.17
27712;BME280;2377;51.734;8.950;2023-03-02T01:30:51;98534.47;;;0.49;59.79
27712;BME280;2377;51.734;8.950;2023-03-02T01:33:19;98522.56;;;0.51;59.46
27712;BME280;2377;51.734;8.950;2023-03-02T01:35:46;98519.94;;;0.53;59.25
27712;BME280;2377;51.734;8.950;2023-03-02T01:38:13;98506.84;;;0.59;59.00
27712;BME280;2377;51.734;8.950;2023-03-02T01:40:42;98506.31;;;0.65;58.78
27712;BME280;2377;51.734;8.950;2023-03-02T01:43:14;98499.31;;;0.69;58.46
27712;BME280;2377;51.734;8.950;2023-03-02T01:45:52;98502.22;;;0.74;58.44
27712;BME280;2377;51.734;8.950;2023-03-02T01:48:27;98501.94;;;0.77;58.17
27712;BME280;2377;51.734;8.950;2023-03-02T01:50:56;98497.97;;;0.84;57.35
27712;BME280;2377;51.734;8.950;2023-03-02T01:53:26;98499.81;;;0.92;56.70
27712;BME280;2377;51.734;8.950;2023-03-02T01:55:58;98497.84;;;0.95;57.10
27712;BME280;2377;51.734;8.950;2023-03-02T01:58:31;98498.50;;;0.97;56.73
27712;BME280;2377;51.734;8.950;2023-03-02T02:01:00;98494.53;;;0.95;56.93
27712;BME280;2377;51.734;8.950;2023-03-02T02:03:29;98498.22;;;0.91;56.43
27712;BME280;2377;51.734;8.950;2023-03-02T02:06:09;98491.84;;;0.96;56.11
27712;BME280;2377;51.734;8.950;2023-03-02T02:08:38;98491.22;;;0.94;55.93
27712;BME280;2377;51.734;8.950;2023-03-02T02:11:07;98483.91;;;0.91;56.25
27712;BME280;2377;51.734;8.950;2023-03-02T02:13:34;98483.41;;;0.97;56.70
27712;BME280;2377;51.734;8.950;2023-03-02T02:16:01;98475.97;;;0.96;55.80
27712;BME280;2377;51.734;8.950;2023-03-02T02:18:28;98473.84;;;0.91;56.17
27712;BME280;2377;51.734;8.950;2023-03-02T02:20:56;98473.59;;;0.94;56.21
27712;BME280;2377;51.734;8.950;2023-03-02T02:23:30;98474.13;;;0.88;56.16
27712;BME280;2377;51.734;8.950;2023-03-02T02:26:22;98470.03;;;0.87;56.55
27712;BME280;2377;51.734;8.950;2023-03-02T02:28:58;98473.47;;;0.86;56.69
27712;BME280;2377;51.734;8.950;2023-03-02T02:31:34;98472.53;;;0.77;55.34
27712;BME280;2377;51.734;8.950;2023-03-02T02:34:11;98471.75;;;0.77;56.16
27712;BME280;2377;51.734;8.950;2023-03-02T02:36:44;98474.41;;;0.75;55.56
27712;BME280;2377;51.734;8.950;2023-03-02T02:39:18;98473.22;;;0.70;56.17
27712;BME280;2377;51.734;8.950;2023-03-02T02:41:51;98469.13;;;0.69;55.97
27712;BME280;2377;51.734;8.950;2023-03-02T02:44:20;98474.53;;;0.64;55.38
27712;BME280;2377;51.734;8.950;2023-03-02T02:46:48;98462.22;;;0.51;56.46
27712;BME280;2377;51.734;8.950;2023-03-02T02:49:28;98465.66;;;0.50;55.13
27712;BME280;2377;51.734;8.950;2023-03-02T02:51:56;98471.25;;;0.63;55.79
27712;BME280;2377;51.734;8.950;2023-03-02T02:54:23;98466.72;;;0.57;56.24
27712;BME280;2377;51.734;8.950;2023-03-02T02:56:53;98472.94;;;0.53;56.75
27712;BME280;2377;51.734;8.950;2023-03-02T02:59:27;98479.69;;;0.53;56.65
27712;BME280;2377;51.734;8.950;2023-03-02T03:01:55;98477.97;;;0.44;57.22
27712;BME280;2377;51.734;8.950;2023-03-02T03:04:28;98478.75;;;0.34;57.84
27712;BME280;2377;51.734;8.950;2023-03-02T03:06:58;98466.44;;;0.22;58.61
27712;BME280;2377;51.734;8.950;2023-03-02T03:09:27;98473.53;;;0.16;58.49
27712;BME280;2377;51.734;8.950;2023-03-02T03:12:12;98478.31;;;0.10;59.33
27712;BME280;2377;51.734;8.950;2023-03-02T03:14:42;98485.41;;;0.05;59.32
27712;BME280;2377;51.734;8.950;2023-03-02T03:17:09;98477.75;;;-0.04;59.58
27712;BME280;2377;51.734;8.950;2023-03-02T03:19:42;98479.69;;;-0.07;60.10
27712;BME280;2377;51.734;8.950;2023-03-02T03:22:12;98482.06;;;-0.15;60.03
27712;BME280;2377;51.734;8.950;2023-03-02T03:24:41;98481.47;;;-0.29;61.20
27712;BME280;2377;51.734;8.950;2023-03-02T03:27:13;98484.75;;;-0.38;61.60
27712;BME280;2377;51.734;8.950;2023-03-02T03:29:44;98484.50;;;-0.35;61.86
27712;BME280;2377;51.734;8.950;2023-03-02T03:32:12;98483.31;;;-0.31;62.09
27712;BME280;2377;51.734;8.950;2023-03-02T03:34:40;98480.31;;;-0.25;62.41
27712;BME280;2377;51.734;8.950;2023-03-02T03:37:08;98465.66;;;-0.19;62.27
27712;BME280;2377;51.734;8.950;2023-03-02T03:39:35;98468.72;;;-0.16;62.46
27712;BME280;2377;51.734;8.950;2023-03-02T03:42:03;98453.38;;;-0.13;62.25
27712;BME280;2377;51.734;8.950;2023-03-02T03:44:32;98458.28;;;-0.11;62.10
27712;BME280;2377;51.734;8.950;2023-03-02T03:46:59;98453.13;;;-0.10;61.84
27712;BME280;2377;51.734;8.950;2023-03-02T03:49:27;98457.75;;;-0.05;61.72
27712;BME280;2377;51.734;8.950;2023-03-02T03:51:54;98462.41;;;-0.01;61.28
27712;BME280;2377;51.734;8.950;2023-03-02T03:54:21;98457.00;;;0.04;60.73
27712;BME280;2377;51.734;8.950;2023-03-02T03:56:49;98454.88;;;0.09;60.66
27712;BME280;2377;51.734;8.950;2023-03-02T03:59:20;98457.16;;;0.12;59.99
27712;BME280;2377;51.734;8.950;2023-03-02T04:01:52;98464.03;;;0.20;60.13
27712;BME280;2377;51.734;8.950;2023-03-02T04:04:24;98457.16;;;0.22;59.43
27712;BME280;2377;51.734;8.950;2023-03-02T04:06:52;98461.66;;;0.18;59.82
27712;BME280;2377;51.734;8.950;2023-03-02T04:09:20;98457.56;;;0.17;59.53
27712;BME280;2377;51.734;8.950;2023-03-02T04:11:50;98454.25;;;0.17;59.55
27712;BME280;2377;51.734;8.950;2023-03-02T04:14:19;98447.63;;;0.26;59.54
27712;BME280;2377;51.734;8.950;2023-03-02T04:16:48;98448.84;;;0.31;58.88
27712;BME280;2377;51.734;8.950;2023-03-02T04:19:16;98445.53;;;0.31;58.95
27712;BME280;2377;51.734;8.950;2023-03-02T04:21:46;98444.72;;;0.30;59.21
27712;BME280;2377;51.734;8.950;2023-03-02T04:24:16;98451.88;;;0.35;59.11
27712;BME280;2377;51.734;8.950;2023-03-02T04:26:45;98447.91;;;0.32;58.89
27712;BME280;2377;51.734;8.950;2023-03-02T04:29:14;98440.25;;;0.34;59.13
27712;BME280;2377;51.734;8.950;2023-03-02T04:31:42;98445.94;;;0.36;59.00
27712;BME280;2377;51.734;8.950;2023-03-02T04:34:11;98443.16;;;0.39;59.16
27712;BME280;2377;51.734;8.950;2023-03-02T04:36:39;98439.72;;;0.40;58.86
27712;BME280;2377;51.734;8.950;2023-03-02T04:39:07;98444.72;;;0.40;59.17
27712;BME280;2377;51.734;8.950;2023-03-02T04:41:35;98439.72;;;0.40;59.42
27712;BME280;2377;51.734;8.950;2023-03-02T04:44:02;98447.53;;;0.47;58.80
27712;BME280;2377;51.734;8.950;2023-03-02T04:46:30;98451.38;;;0.41;59.30
27712;BME280;2377;51.734;8.950;2023-03-02T04:48:59;98453.22;;;0.39;59.52
27712;BME280;2377;51.734;8.950;2023-03-02T04:51:30;98453.47;;;0.36;59.22
27712;BME280;2377;51.734;8.950;2023-03-02T04:54:01;98460.63;;;0.40;59.14
27712;BME280;2377;51.734;8.950;2023-03-02T04:56:29;98463.81;;;0.43;59.18
27712;BME280;2377;51.734;8.950;2023-03-02T04:58:56;98466.44;;;0.41;59.33
27712;BME280;2377;51.734;8.950;2023-03-02T05:01:24;98475.19;;;0.37;59.53
27712;BME280;2377;51.734;8.950;2023-03-02T05:03:52;98471.31;;;0.33;59.51
27712;BME280;2377;51.734;8.950;2023-03-02T05:06:21;98466.03;;;0.26;59.61
27712;BME280;2377;51.734;8.950;2023-03-02T05:08:52;98469.63;;;0.24;59.84
27712;BME280;2377;51.734;8.950;2023-03-02T05:11:19;98468.53;;;0.16;60.01
27712;BME280;2377;51.734;8.950;2023-03-02T05:13:48;98470.63;;;0.11;60.16
27712;BME280;2377;51.734;8.950;2023-03-02T05:16:16;98472.47;;;0.09;60.13
27712;BME280;2377;51.734;8.950;2023-03-02T05:18:43;98465.88;;;0.08;60.30
27712;BME280;2377;51.734;8.950;2023-03-02T05:21:11;98470.50;;;0.03;60.53
27712;BME280;2377;51.734;8.950;2023-03-02T05:23:39;98473.50;;;-0.03;60.42
27712;BME280;2377;51.734;8.950;2023-03-02T05:26:09;98473.47;;;-0.13;61.20
27712;BME280;2377;51.734;8.950;2023-03-02T05:28:36;98469.50;;;-0.15;61.36
27712;BME280;2377;51.734;8.950;2023-03-02T05:31:04;98472.41;;;-0.20;61.56
27712;BME280;2377;51.734;8.950;2023-03-02T05:33:31;98473.84;;;-0.17;61.32
27712;BME280;2377;51.734;8.950;2023-03-02T05:35:59;98472.97;;;-0.16;61.23
27712;BME280;2377;51.734;8.950;2023-03-02T05:38:26;98473.84;;;-0.17;61.32
27712;BME280;2377;51.734;8.950;2023-03-02T05:40:56;98471.59;;;-0.20;61.82
27712;BME280;2377;51.734;8.950;2023-03-02T05:43:25;98466.28;;;-0.27;61.85
27712;BME280;2377;51.734;8.950;2023-03-02T05:45:52;98469.31;;;-0.33;62.10
27712;BME280;2377;51.734;8.950;2023-03-02T05:48:20;98463.59;;;-0.35;62.25
27712;BME280;2377;51.734;8.950;2023-03-02T05:50:47;98461.25;;;-0.37;62.15
27712;BME280;2377;51.734;8.950;2023-03-02T05:53:14;98459.09;;;-0.41;62.44
27712;BME280;2377;51.734;8.950;2023-03-02T05:55:41;98458.56;;;-0.45;62.47
27712;BME280;2377;51.734;8.950;2023-03-02T05:58:12;98457.22;;;-0.49;62.64
27712;BME280;2377;51.734;8.950;2023-03-02T06:00:42;98459.19;;;-0.53;63.04
27712;BME280;2377;51.734;8.950;2023-03-02T06:03:09;98468.56;;;-0.55;63.02
27712;BME280;2377;51.734;8.950;2023-03-02T06:05:37;98458.88;;;-0.59;63.08
27712;BME280;2377;51.734;8.950;2023-03-02T06:08:04;98465.63;;;-0.60;63.08
27712;BME280;2377;51.734;8.950;2023-03-02T06:10:32;98463.00;;;-0.58;63.11
27712;BME280;2377;51.734;8.950;2023-03-02T06:12:59;98461.16;;;-0.56;63.04
27712;BME280;2377;51.734;8.950;2023-03-02T06:15:27;98467.50;;;-0.52;63.17
27712;BME280;2377;51.734;8.950;2023-03-02T06:17:56;98468.44;;;-0.53;63.36
27712;BME280;2377;51.734;8.950;2023-03-02T06:20:24;98467.88;;;-0.57;63.81
27712;BME280;2377;51.734;8.950;2023-03-02T06:22:51;98467.75;;;-0.55;63.56
27712;BME280;2377;51.734;8.950;2023-03-02T06:25:21;98469.91;;;-0.51;63.82
27712;BME280;2377;51.734;8.950;2023-03-02T06:27:50;98466.06;;;-0.45;63.35
27712;BME280;2377;51.734;8.950;2023-03-02T06:30:22;98472.06;;;-0.36;63.72
27712;BME280;2377;51.734;8.950;2023-03-02T06:32:49;98483.09;;;-0.28;63.75
27712;BME280;2377;51.734;8.950;2023-03-02T06:35:18;98477.13;;;-0.27;63.39
27712;BME280;2377;51.734;8.950;2023-03-02T06:37:45;98478.59;;;-0.24;63.83
27712;BME280;2377;51.734;8.950;2023-03-02T06:40:13;98484.88;;;-0.09;63.31
27712;BME280;2377;51.734;8.950;2023-03-02T06:42:41;98477.41;;;0.20;62.54
27712;BME280;2377;51.734;8.950;2023-03-02T06:45:10;98486.94;;;0.27;62.26
27712;BME280;2377;51.734;8.950;2023-03-02T06:47:37;98480.34;;;0.45;61.81
27712;BME280;2377;51.734;8.950;2023-03-02T06:50:05;98481.94;;;0.56;61.60
27712;BME280;2377;51.734;8.950;2023-03-02T06:52:34;98480.09;;;0.87;61.16
27712;BME280;2377;51.734;8.950;2023-03-02T06:55:02;98494.13;;;1.94;58.49
27712;BME280;2377;51.734;8.950;2023-03-02T06:57:29;98488.38;;;2.83;56.83
27712;BME280;2377;51.734;8.950;2023-03-02T07:00:00;98488.22;;;2.84;56.23
27712;BME280;2377;51.734;8.950;2023-03-02T07:02:27;98495.97;;;2.83;54.93
27712;BME280;2377;51.734;8.950;2023-03-02T07:04:54;98497.84;;;3.25;55.40
27712;BME280;2377;51.734;8.950;2023-03-02T07:07:21;98496.78;;;3.62;53.79
27712;BME280;2377;51.734;8.950;2023-03-02T07:09:49;98490.78;;;4.88;51.54
27712;BME280;2377;51.734;8.950;2023-03-02T07:12:16;98495.38;;;5.01;50.69
27712;BME280;2377;51.734;8.950;2023-03-02T07:14:43;98496.63;;;4.81;51.21
27712;BME280;2377;51.734;8.950;2023-03-02T07:17:10;98499.38;;;5.68;49.02
27712;BME280;2377;51.734;8.950;2023-03-02T07:19:37;98502.13;;;6.83;47.55
27712;BME280;2377;51.734;8.950;2023-03-02T07:22:05;98505.31;;;7.00;46.47
27712;BME280;2377;51.734;8.950;2023-03-02T07:24:32;98500.50;;;7.05;45.63
27712;BME280;2377;51.734;8.950;2023-03-02T07:27:00;98503.28;;;6.95;45.98
27712;BME280;2377;51.734;8.950;2023-03-02T07:29:29;98504.00;;;6.89;45.70
27712;BME280;2377;51.734;8.950;2023-03-02T07:31:56;98506.56;;;6.81;45.82
27712;BME280;2377;51.734;8.950;2023-03-02T07:34:26;98500.50;;;7.05;44.54
27712;BME280;2377;51.734;8.950;2023-03-02T07:36:53;98510.19;;;7.99;44.61
27712;BME280;2377;51.734;8.950;2023-03-02T07:39:20;98503.97;;;9.30;42.60
27712;BME280;2377;51.734;8.950;2023-03-02T07:41:48;98508.03;;;8.68;41.25
27712;BME280;2377;51.734;8.950;2023-03-02T07:44:16;98498.91;;;7.72;43.15
27712;BME280;2377;51.734;8.950;2023-03-02T07:46:43;98501.91;;;7.46;44.42
27712;BME280;2377;51.734;8.950;2023-03-02T07:49:10;98494.50;;;6.60;45.71
27712;BME280;2377;51.734;8.950;2023-03-02T07:51:37;98501.38;;;6.74;46.02
27712;BME280;2377;51.734;8.950;2023-03-02T07:54:04;98501.44;;;6.66;45.69
27712;BME280;2377;51.734;8.950;2023-03-02T07:56:31;98503.75;;;6.76;45.38
27712;BME280;2377;51.734;8.950;2023-03-02T07:58:58;98501.72;;;6.48;46.21
27712;BME280;2377;51.734;8.950;2023-03-02T08:01:27;98495.59;;;6.11;47.37
27712;BME280;2377;51.734;8.950;2023-03-02T08:03:54;98502.03;;;6.91;46.43
27712;BME280;2377;51.734;8.950;2023-03-02T08:06:21;98509.66;;;8.76;43.48
27712;BME280;2377;51.734;8.950;2023-03-02T08:08:48;98503.53;;;8.34;43.19
27712;BME280;2377;51.734;8.950;2023-03-02T08:11:17;98507.03;;;8.70;42.16
27712;BME280;2377;51.734;8.950;2023-03-02T08:13:45;98511.84;;;9.29;41.57
27712;BME280;2377;51.734;8.950;2023-03-02T08:16:14;98511.47;;;9.67;41.64
27712;BME280;2377;51.734;8.950;2023-03-02T08:18:43;98514.13;;;10.42;40.12
27712;BME280;2377;51.734;8.950;2023-03-02T08:21:13;98512.38;;;10.55;39.83
27712;BME280;2377;51.734;8.950;2023-03-02T08:23:41;98518.16;;;10.23;40.17
27712;BME280;2377;51.734;8.950;2023-03-02T08:26:09;98510.50;;;10.16;39.23
27712;BME280;2377;51.734;8.950;2023-03-02T08:28:36;98509.25;;;11.00;39.34
27712;BME280;2377;51.734;8.950;2023-03-02T08:31:05;98519.47;;;12.18;38.43
27712;BME280;2377;51.734;8.950;2023-03-02T08:33:33;98507.00;;;12.22;36.13
27712;BME280;2377;51.734;8.950;2023-03-02T08:36:04;98510.97;;;12.56;36.99
27712;BME280;2377;51.734;8.950;2023-03-02T08:38:33;98516.84;;;13.75;33.62
27712;BME280;2377;51.734;8.950;2023-03-02T08:41:02;98512.47;;;15.09;32.85
27712;BME280;2377;51.734;8.950;2023-03-02T08:43:31;98512.31;;;15.74;30.91
27712;BME280;2377;51.734;8.950;2023-03-02T08:45:59;98515.06;;;16.54;30.10
27712;BME280;2377;51.734;8.950;2023-03-02T08:48:27;98513.72;;;17.19;29.09
27712;BME280;2377;51.734;8.950;2023-03-02T08:50:57;98515.38;;;17.47;30.14
27712;BME280;2377;51.734;8.950;2023-03-02T08:53:28;98516.28;;;18.24;28.17
27712;BME280;2377;51.734;8.950;2023-03-02T08:55:55;98513.03;;;17.84;28.24
27712;BME280;2377;51.734;8.950;2023-03-02T08:58:22;98518.22;;;18.38;27.13
27712;BME280;2377;51.734;8.950;2023-03-02T09:00:49;98526.56;;;18.46;26.50
27712;BME280;2377;51.734;8.950;2023-03-02T09:03:17;98523.34;;;18.33;27.66
27712;BME280;2377;51.734;8.950;2023-03-02T09:05:44;98520.19;;;19.28;26.73
27712;BME280;2377;51.734;8.950;2023-03-02T09:08:12;98526.84;;;19.14;26.34
27712;BME280;2377;51.734;8.950;2023-03-02T09:10:41;98513.34;;;18.74;26.43
27712;BME280;2377;51.734;8.950;2023-03-02T09:13:08;98518.72;;;19.00;26.24
27712;BME280;2377;51.734;8.950;2023-03-02T09:15:35;98526.22;;;18.64;26.44
27712;BME280;2377;51.734;8.950;2023-03-02T09:18:02;98521.22;;;18.85;26.00
27712;BME280;2377;51.734;8.950;2023-03-02T09:20:29;98525.44;;;19.38;25.29
27712;BME280;2377;51.734;8.950;2023-03-02T09:22:58;98518.97;;;18.66;25.65
27712;BME280;2377;51.734;8.950;2023-03-02T09:25:25;98509.19;;;18.73;25.93
27712;BME280;2377;51.734;8.950;2023-03-02T09:27:54;98504.25;;;18.40;25.91
27712;BME280;2377;51.734;8.950;2023-03-02T09:30:21;98505.25;;;18.66;26.11
27712;BME280;2377;51.734;8.950;2023-03-02T09:32:48;98514.81;;;19.40;25.17
27712;BME280;2377;51.734;8.950;2023-03-02T09:35:15;98507.31;;;20.17;24.43
27712;BME280;2377;51.734;8.950;2023-03-02T09:37:42;98507.84;;;20.09;23.96
27712;BME280;2377;51.734;8.950;2023-03-02T09:40:18;98505.25;;;20.14;23.82
27712;BME280;2377;51.734;8.950;2023-03-02T09:43:17;98506.81;;;20.45;24.19
27712;BME280;2377;51.734;8.950;2023-03-02T09:46:09;98512.72;;;19.32;24.98
27712;BME280;2377;51.734;8.950;2023-03-02T09:48:51;98513.59;;;19.05;25.94
27712;BME280;2377;51.734;8.950;2023-03-02T09:51:32;98513.69;;;19.26;24.58
27712;BME280;2377;51.734;8.950;2023-03-02T09:54:08;98512.19;;;19.82;24.24
27712;BME280;2377;51.734;8.950;2023-03-02T09:56:40;98514.66;;;20.56;24.45
27712;BME280;2377;51.734;8.950;2023-03-02T09:59:20;98524.47;;;21.15;23.62
27712;BME280;2377;51.734;8.950;2023-03-02T10:01:53;98522.97;;;20.63;23.51
27712;BME280;2377;51.734;8.950;2023-03-02T10:04:25;98515.97;;;20.58;23.39
27712;BME280;2377;51.734;8.950;2023-03-02T10:07:00;98522.31;;;19.36;24.58
27712;BME280;2377;51.734;8.950;2023-03-02T10:09:28;98511.88;;;18.24;26.50
27712;BME280;2377;51.734;8.950;2023-03-02T10:12:19;98510.13;;;18.03;26.24
27712;BME280;2377;51.734;8.950;2023-03-02T10:14:57;98506.13;;;18.17;26.94
27712;BME280;2377;51.734;8.950;2023-03-02T10:17:50;98505.16;;;19.83;24.69
27712;BME280;2377;51.734;8.950;2023-03-02T10:20:28;98498.53;;;20.84;23.74
27712;BME280;2377;51.734;8.950;2023-03-02T10:23:09;98509.03;;;21.49;22.68
27712;BME280;2377;51.734;8.950;2023-03-02T10:25:47;98509.72;;;20.75;23.18
27712;BME280;2377;51.734;8.950;2023-03-02T10:28:20;98502.13;;;20.12;23.80
27712;BME280;2377;51.734;8.950;2023-03-02T10:30:56;98499.97;;;18.83;26.26
27712;BME280;2377;51.734;8.950;2023-03-02T10:33:27;98500.03;;;18.93;25.90
27712;BME280;2377;51.734;8.950;2023-03-02T10:35:54;98504.13;;;19.79;25.29
27712;BME280;2377;51.734;8.950;2023-03-02T10:38:24;98498.38;;;19.72;24.94
27712;BME280;2377;51.734;8.950;2023-03-02T10:40:57;98500.56;;;18.95;25.84
27712;BME280;2377;51.734;8.950;2023-03-02T10:43:30;98490.34;;;18.19;26.64
27712;BME280;2377;51.734;8.950;2023-03-02T10:46:03;98489.25;;;17.04;28.54
27712;BME280;2377;51.734;8.950;2023-03-02T10:48:32;98488.22;;;16.09;29.70
27712;BME280;2377;51.734;8.950;2023-03-02T10:51:03;98495.31;;;14.79;31.31
27712;BME280;2377;51.734;8.950;2023-03-02T10:53:30;98489.84;;;13.85;32.87
27712;BME280;2377;51.734;8.950;2023-03-02T10:55:58;98487.09;;;13.68;33.93
27712;BME280;2377;51.734;8.950;2023-03-02T10:58:30;98481.41;;;13.22;34.67
27712;BME280;2377;51.734;8.950;2023-03-02T11:01:01;98475.78;;;13.14;35.40
27712;BME280;2377;51.734;8.950;2023-03-02T11:03:30;98478.44;;;12.82;36.22
27712;BME280;2377;51.734;8.950;2023-03-02T11:06:10;98484.94;;;12.53;36.81
27712;BME280;2377;51.734;8.950;2023-03-02T11:08:37;98478.16;;;12.33;37.07
27712;BME280;2377;51.734;8.950;2023-03-02T11:11:04;98473.88;;;11.69;38.26
27712;BME280;2377;51.734;8.950;2023-03-02T11:13:35;98479.06;;;11.62;37.42
27712;BME280;2377;51.734;8.950;2023-03-02T11:16:26;98467.06;;;11.49;38.18
27712;BME280;2377;51.734;8.950;2023-03-02T11:18:59;98470.81;;;11.40;38.55
27712;BME280;2377;51.734;8.950;2023-03-02T11:21:34;98472.03;;;11.31;39.74
27712;BME280;2377;51.734;8.950;2023-03-02T11:24:10;98464.56;;;11.29;39.75
27712;BME280;2377;51.734;8.950;2023-03-02T11:26:46;98470.09;;;10.99;37.76
27712;BME280;2377;51.734;8.950;2023-03-02T11:29:34;98469.91;;;10.88;38.85
27712;BME280;2377;51.734;8.950;2023-03-02T11:32:14;98460.66;;;10.60;39.32
27712;BME280;2377;51.734;8.950;2023-03-02T11:34:48;98456.13;;;10.55;41.33
27712;BME280;2377;51.734;8.950;2023-03-02T11:37:21;98450.84;;;10.70;40.83
27712;BME280;2377;51.734;8.950;2023-03-02T11:40:16;98459.69;;;10.74;40.64
27712;BME280;2377;51.734;8.950;2023-03-02T11:42:45;98453.00;;;10.67;40.88
27712;BME280;2377;51.734;8.950;2023-03-02T11:45:20;98447.13;;;10.73;40.69
27712;BME280;2377;51.734;8.950;2023-03-02T11:47:55;98443.56;;;10.54;40.52
27712;BME280;2377;51.734;8.950;2023-03-02T11:50:25;98430.97;;;10.46;41.92
27712;BME280;2377;51.734;8.950;2023-03-02T11:52:57;98440.63;;;10.57;41.95
27712;BME280;2377;51.734;8.950;2023-03-02T11:55:27;98426.47;;;10.68;42.25
27712;BME280;2377;51.734;8.950;2023-03-02T11:58:02;98432.16;;;10.76;41.96
27712;BME280;2377;51.734;8.950;2023-03-02T12:00:34;98422.50;;;10.72;42.09
27712;BME280;2377;51.734;8.950;2023-03-02T12:03:06;98427.38;;;10.27;43.31
27712;BME280;2377;51.734;8.950;2023-03-02T12:05:36;98434.44;;;10.25;43.92
27712;BME280;2377;51.734;8.950;2023-03-02T12:08:27;98427.38;;;10.20;42.60
27712;BME280;2377;51.734;8.950;2023-03-02T12:10:58;98424.09;;;10.33;43.58
27712;BME280;2377;51.734;8.950;2023-03-02T12:13:29;98420.34;;;10.35;42.42
27712;BME280;2377;51.734;8.950;2023-03-02T12:15:57;98414.84;;;10.39;42.71
27712;BME280;2377;51.734;8.950;2023-03-02T12:18:47;98422.63;;;10.10;43.26
27712;BME280;2377;51.734;8.950;2023-03-02T12:21:18;98412.84;;;10.14;42.91
27712;BME280;2377;51.734;8.950;2023-03-02T12:23:59;98412.84;;;10.14;43.52
27712;BME280;2377;51.734;8.950;2023-03-02T12:26:36;98410.06;;;10.15;43.31
27712;BME280;2377;51.734;8.950;2023-03-02T12:29:21;98404.56;;;10.12;44.08
27712;BME280;2377;51.734;8.950;2023-03-02T12:31:52;98400.00;;;9.94;44.63
27712;BME280;2377;51.734;8.950;2023-03-02T12:34:33;98400.78;;;9.94;44.19
27712;BME280;2377;51.734;8.950;2023-03-02T12:37:12;98392.19;;;10.09;45.18
27712;BME280;2377;51.734;8.950;2023-03-02T12:40:44;98390.44;;;10.16;44.31
27712;BME280;2377;51.734;8.950;2023-03-02T12:43:27;98395.19;;;10.32;44.50
27712;BME280;2377;51.734;8.950;2023-03-02T12:46:26;98383.78;;;10.42;44.94
27712;BME280;2377;51.734;8.950;2023-03-02T12:49:14;98378.81;;;10.20;44.01
27712;BME280;2377;51.734;8.950;2023-03-02T12:51:50;98382.38;;;10.12;46.06
27712;BME280;2377;51.734;8.950;2023-03-02T12:54:20;98375.13;;;10.16;45.97
27712;BME280;2377;51.734;8.950;2023-03-02T12:56:48;98381.78;;;10.17;45.53
27712;BME280;2377;51.734;8.950;2023-03-02T12:59:26;98373.53;;;10.15;45.22
27712;BME280;2377;51.734;8.950;2023-03-02T13:02:14;98372.34;;;9.98;45.57
27712;BME280;2377;51.734;8.950;2023-03-02T13:04:41;98359.16;;;9.94;45.47
27712;BME280;2377;51.734;8.950;2023-03-02T13:07:22;98353.06;;;9.88;46.24
27712;BME280;2377;51.734;8.950;2023-03-02T13:09:51;98351.28;;;9.89;46.29
27712;BME280;2377;51.734;8.950;2023-03-02T13:12:19;98348.75;;;9.89;46.29
27712;BME280;2377;51.734;8.950;2023-03-02T13:14:51;98348.72;;;9.82;46.75
27712;BME280;2377;51.734;8.950;2023-03-02T13:17:24;98348.13;;;9.80;45.92
27712;BME280;2377;51.734;8.950;2023-03-02T13:19:52;98344.78;;;9.80;46.91
27712;BME280;2377;51.734;8.950;2023-03-02T13:22:21;98345.78;;;9.79;47.02
27712;BME280;2377;51.734;8.950;2023-03-02T13:24:55;98344.22;;;9.84;46.60
27712;BME280;2377;51.734;8.950;2023-03-02T13:27:25;98349.16;;;9.92;46.88
27712;BME280;2377;51.734;8.950;2023-03-02T13:29:53;98342.28;;;10.13;47.75
27712;BME280;2377;51.734;8.950;2023-03-02T13:32:24;98342.47;;;10.18;46.76
27712;BME280;2377;51.734;8.950;2023-03-02T13:34:54;98348.75;;;10.22;47.24
27712;BME280;2377;51.734;8.950;2023-03-02T13:37:37;98339.94;;;10.11;46.72